sensor_id;sensor_type;location;lat;lon;timestamp;temperature;humidity
13326;DHT22;6732;51.044;3.746;2023-01-19T00:01:24;4.10;99.90
13326;DHT22;6732;51.044;3.746;2023-01-19T00:03:51;4.10;99.90
13326;DHT22;6732;51.044;3.746;2023-01-19T00:06:17;4.00;99.90
13326;DHT22;6732;51.044;3.746;2023-01-19T00:08:43;4.00;99.90
13326;DHT22;6732;51.044;3.746;2023-01-19T00:11:11;4.00;99.90
13326;DHT22;6732;51.044;3.746;2023-01-19T00:13:38;4.00;99.90
13326;DHT22;6732;51.044;3.746;2023-01-19T00:16:05;4.00;99.90
13326;DHT22;6732;51.044;3.746;2023-01-19T00:18:32;4.00;99.90
13326;DHT22;6732;51.044;3.746;2023-01-19T00:20:58;4.00;99.90
13326;DHT22;6732;51.044;3.746;2023-01-19T00:23:24;4.00;99.90
13326;DHT22;6732;51.044;3.746;2023-01-19T00:25:50;4.00;99.90
13326;DHT22;6732;51.044;3.746;2023-01-19T00:28:17;4.00;99.90
13326;DHT22;6732;51.044;3.746;2023-01-19T00:30:44;4.00;99.90
13326;DHT22;6732;51.044;3.746;2023-01-19T00:33:11;4.00;99.90
13326;DHT22;6732;51.044;3.746;2023-01-19T00:35:40;4.00;99.90
13326;DHT22;6732;51.044;3.746;2023-01-19T00:38:08;3.90;99.90
13326;DHT22;6732;51.044;3.746;2023-01-19T00:40:34;4.00;99.90
13326;DHT22;6732;51.044;3.746;2023-01-19T00:43:00;3.90;99.90
13326;DHT22;6732;51.044;3.746;2023-01-19T00:45:26;3.90;99.90
13326;DHT22;6732;51.044;3.746;2023-01-19T00:47:52;3.90;99.90
13326;DHT22;6732;51.044;3.746;2023-01-19T00:50:23;4.00;99.90
13326;DHT22;6732;51.044;3.746;2023-01-19T00:52:49;4.00;99.90
13326;DHT22;6732;51.044;3.746;2023-01-19T00:55:16;4.00;99.90
13326;DHT22;6732;51.044;3.746;2023-01-19T00:57:42;3.90;99.90
13326;DHT22;6732;51.044;3.746;2023-01-19T01:00:11;3.90;99.90
13326;DHT22;6732;51.044;3.746;2023-01-19T01:02:38;3.90;99.90
13326;DHT22;6732;51.044;3.746;2023-01-19T01:05:05;3.90;99.90
13326;DHT22;6732;51.044;3.746;2023-01-19T01:07:32;3.90;99.90
13326;DHT22;6732;51.044;3.746;2023-01-19T01:10:18;3.90;99.90
13326;DHT22;6732;51.044;3.746;2023-01-19T01:12:45;3.90;99.90
13326;DHT22;6732;51.044;3.746;2023-01-19T01:15:13;3.80;99.90
13326;DHT22;6732;51.044;3.746;2023-01-19T01:17:40;3.80;99.90
13326;DHT22;6732;51.044;3.746;2023-01-19T01:20:20;3.80;99.90
13326;DHT22;6732;51.044;3.746;2023-01-19T01:22:50;3.80;99.90
13326;DHT22;6732;51.044;3.746;2023-01-19T01:25:19;3.90;99.90
13326;DHT22;6732;51.044;3.746;2023-01-19T01:27:47;3.90;99.90
13326;DHT22;6732;51.044;3.746;2023-01-19T01:30:14;3.90;99.90
13326;DHT22;6732;51.044;3.746;2023-01-19T01:32:40;3.80;99.90
13326;DHT22;6732;51.044;3.746;2023-01-19T01:35:08;3.80;99.90
13326;DHT22;6732;51.044;3.746;2023-01-19T01:37:35;3.80;99.90
13326;DHT22;6732;51.044;3.746;2023-01-19T01:40:02;3.80;99.90
13326;DHT22;6732;51.044;3.746;2023-01-19T01:42:30;3.80;99.90
13326;DHT22;6732;51.044;3.746;2023-01-19T01:44:58;3.80;99.90
13326;DHT22;6732;51.044;3.746;2023-01-19T01:47:32;3.80;99.90
13326;DHT22;6732;51.044;3.746;2023-01-19T01:50:07;3.80;99.90
13326;DHT22;6732;51.044;3.746;2023-01-19T01:52:38;3.80;99.90
13326;DHT22;6732;51.044;3.746;2023-01-19T01:55:05;3.80;99.90
13326;DHT22;6732;51.044;3.746;2023-01-19T01:57:41;3.80;99.90
13326;DHT22;6732;51.044;3.746;2023-01-19T02:00:09;3.80;99.90
13326;DHT22;6732;51.044;3.746;2023-01-19T02:02:36;3.80;99.90
13326;DHT22;6732;51.044;3.746;2023-01-19T02:05:26;3.80;99.90
13326;DHT22;6732;51.044;3.746;2023-01-19T02:07:57;3.80;99.90
13326;DHT22;6732;51.044;3.746;2023-01-19T02:10:43;3.80;99.90
13326;DHT22;6732;51.044;3.746;2023-01-19T02:13:28;3.80;99.90
13326;DHT22;6732;51.044;3.746;2023-01-19T02:15:57;3.80;99.90
13326;DHT22;6732;51.044;3.746;2023-01-19T02:18:26;3.80;99.90
13326;DHT22;6732;51.044;3.746;2023-01-19T02:23:48;3.80;99.90
13326;DHT22;6732;51.044;3.746;2023-01-19T02:26:24;3.80;99.90
13326;DHT22;6732;51.044;3.746;2023-01-19T02:29:06;3.80;99.90
13326;DHT22;6732;51.044;3.746;2023-01-19T02:31:33;3.80;99.90
13326;DHT22;6732;51.044;3.746;2023-01-19T02:34:02;3.80;99.90
13326;DHT22;6732;51.044;3.746;2023-01-19T02:36:55;3.80;99.90
13326;DHT22;6732;51.044;3.746;2023-01-19T02:39:27;3.80;99.90
13326;DHT22;6732;51.044;3.746;2023-01-19T02:42:03;3.80;99.90
13326;DHT22;6732;51.044;3.746;2023-01-19T02:44:32;3.80;99.90
13326;DHT22;6732;51.044;3.746;2023-01-19T02:46:59;3.80;99.90
13326;DHT22;6732;51.044;3.746;2023-01-19T02:49:28;3.80;99.90
13326;DHT22;6732;51.044;3.746;2023-01-19T02:51:57;3.90;99.90
13326;DHT22;6732;51.044;3.746;2023-01-19T02:54:35;3.90;99.90
13326;DHT22;6732;51.044;3.746;2023-01-19T03:11:14;3.90;99.90
13326;DHT22;6732;51.044;3.746;2023-01-19T03:13:48;3.90;99.90
13326;DHT22;6732;51.044;3.746;2023-01-19T03:16:46;4.00;99.90
13326;DHT22;6732;51.044;3.746;2023-01-19T03:19:25;4.00;99.90
13326;DHT22;6732;51.044;3.746;2023-01-19T03:21:57;4.00;99.90
13326;DHT22;6732;51.044;3.746;2023-01-19T03:24:24;4.00;99.90
13326;DHT22;6732;51.044;3.746;2023-01-19T03:26:57;4.00;99.90
13326;DHT22;6732;51.044;3.746;2023-01-19T03:29:27;4.00;99.90
13326;DHT22;6732;51.044;3.746;2023-01-19T03:31:57;4.00;99.90
13326;DHT22;6732;51.044;3.746;2023-01-19T03:34:24;4.00;99.90
13326;DHT22;6732;51.044;3.746;2023-01-19T03:36:58;4.00;99.90
13326;DHT22;6732;51.044;3.746;2023-01-19T03:39:26;4.00;99.90
13326;DHT22;6732;51.044;3.746;2023-01-19T03:41:56;4.10;99.90
13326;DHT22;6732;51.044;3.746;2023-01-19T03:44:23;4.00;99.90
13326;DHT22;6732;51.044;3.746;2023-01-19T03:46:51;4.00;99.90
13326;DHT22;6732;51.044;3.746;2023-01-19T03:49:17;4.00;99.90
13326;DHT22;6732;51.044;3.746;2023-01-19T03:51:43;4.00;99.90
13326;DHT22;6732;51.044;3.746;2023-01-19T03:54:09;4.00;99.90
13326;DHT22;6732;51.044;3.746;2023-01-19T03:56:36;4.00;99.90
13326;DHT22;6732;51.044;3.746;2023-01-19T03:59:02;4.00;99.90
13326;DHT22;6732;51.044;3.746;2023-01-19T04:01:30;4.00;99.90
13326;DHT22;6732;51.044;3.746;2023-01-19T04:03:56;4.00;99.90
13326;DHT22;6732;51.044;3.746;2023-01-19T04:06:22;4.00;99.90
13326;DHT22;6732;51.044;3.746;2023-01-19T04:08:49;3.90;99.90
13326;DHT22;6732;51.044;3.746;2023-01-19T04:11:16;3.90;99.90
13326;DHT22;6732;51.044;3.746;2023-01-19T04:13:42;3.90;99.90
13326;DHT22;6732;51.044;3.746;2023-01-19T04:16:11;3.90;99.90
13326;DHT22;6732;51.044;3.746;2023-01-19T04:18:39;3.90;99.90
13326;DHT22;6732;51.044;3.746;2023-01-19T04:21:11;4.00;99.90
13326;DHT22;6732;51.044;3.746;2023-01-19T04:23:37;4.00;99.90
13326;DHT22;6732;51.044;3.746;2023-01-19T04:26:18;3.90;99.90
13326;DHT22;6732;51.044;3.746;2023-01-19T04:28:44;3.90;99.90
13326;DHT22;6732;51.044;3.746;2023-01-19T04:31:10;3.90;99.90
13326;DHT22;6732;51.044;3.746;2023-01-19T04:33:37;3.90;99.90
13326;DHT22;6732;51.044;3.746;2023-01-19T04:36:03;3.90;99.90
13326;DHT22;6732;51.044;3.746;2023-01-19T04:38:29;3.90;99.90
13326;DHT22;6732;51.044;3.746;2023-01-19T04:40:55;3.90;99.90
13326;DHT22;6732;51.044;3.746;2023-01-19T04:43:22;3.90;99.90
13326;DHT22;6732;51.044;3.746;2023-01-19T04:45:49;3.80;99.90
13326;DHT22;6732;51.044;3.746;2023-01-19T04:48:15;3.80;99.90
13326;DHT22;6732;51.044;3.746;2023-01-19T04:50:43;3.80;99.90
13326;DHT22;6732;51.044;3.746;2023-01-19T04:53:09;3.80;99.90
13326;DHT22;6732;51.044;3.746;2023-01-19T04:55:38;3.80;99.90
13326;DHT22;6732;51.044;3.746;2023-01-19T04:58:04;3.80;99.90
13326;DHT22;6732;51.044;3.746;2023-01-19T05:00:30;3.80;99.90
13326;DHT22;6732;51.044;3.746;2023-01-19T05:02:56;3.80;99.90
13326;DHT22;6732;51.044;3.746;2023-01-19T05:05:22;3.80;99.90
13326;DHT22;6732;51.044;3.746;2023-01-19T05:07:48;3.80;99.90
13326;DHT22;6732;51.044;3.746;2023-01-19T05:10:14;3.80;99.90
13326;DHT22;6732;51.044;3.746;2023-01-19T05:12:40;3.80;99.90
13326;DHT22;6732;51.044;3.746;2023-01-19T05:15:07;3.70;99.90
13326;DHT22;6732;51.044;3.746;2023-01-19T05:17:34;3.70;99.90
13326;DHT22;6732;51.044;3.746;2023-01-19T05:20:01;3.70;99.90
13326;DHT22;6732;51.044;3.746;2023-01-19T05:22:28;3.70;99.90
13326;DHT22;6732;51.044;3.746;2023-01-19T05:24:54;3.70;99.90
13326;DHT22;6732;51.044;3.746;2023-01-19T05:27:20;3.70;99.90
13326;DHT22;6732;51.044;3.746;2023-01-19T05:29:46;3.70;99.90
13326;DHT22;6732;51.044;3.746;2023-01-19T05:32:12;3.70;99.90
13326;DHT22;6732;51.044;3.746;2023-01-19T05:34:38;3.70;99.90
13326;DHT22;6732;51.044;3.746;2023-01-19T05:37:04;3.70;99.90
13326;DHT22;6732;51.044;3.746;2023-01-19T05:39:30;3.70;99.90
13326;DHT22;6732;51.044;3.746;2023-01-19T05:41:56;3.70;99.90
13326;DHT22;6732;51.044;3.746;2023-01-19T05:44:22;3.70;99.90
13326;DHT22;6732;51.044;3.746;2023-01-19T05:46:48;3.70;99.90
13326;DHT22;6732;51.044;3.746;2023-01-19T05:49:13;3.60;99.90
13326;DHT22;6732;51.044;3.746;2023-01-19T05:51:39;3.60;99.90
13326;DHT22;6732;51.044;3.746;2023-01-19T05:54:12;3.70;99.90
13326;DHT22;6732;51.044;3.746;2023-01-19T05:56:40;3.60;99.90
13326;DHT22;6732;51.044;3.746;2023-01-19T05:59:06;3.60;99.90
13326;DHT22;6732;51.044;3.746;2023-01-19T06:01:32;3.60;99.90
13326;DHT22;6732;51.044;3.746;2023-01-19T06:04:00;3.60;99.90
13326;DHT22;6732;51.044;3.746;2023-01-19T06:06:26;3.60;99.90
13326;DHT22;6732;51.044;3.746;2023-01-19T06:08:51;3.60;99.90
13326;DHT22;6732;51.044;3.746;2023-01-19T06:11:17;3.60;99.90
13326;DHT22;6732;51.044;3.746;2023-01-19T06:13:44;3.50;99.90
13326;DHT22;6732;51.044;3.746;2023-01-19T06:16:11;3.50;99.90
13326;DHT22;6732;51.044;3.746;2023-01-19T06:18:37;3.50;99.90
13326;DHT22;6732;51.044;3.746;2023-01-19T06:21:07;3.50;99.90
13326;DHT22;6732;51.044;3.746;2023-01-19T06:23:34;3.50;99.90
13326;DHT22;6732;51.044;3.746;2023-01-19T06:26:01;3.50;99.90
13326;DHT22;6732;51.044;3.746;2023-01-19T06:28:27;3.50;99.90
13326;DHT22;6732;51.044;3.746;2023-01-19T06:30:54;3.60;99.90
13326;DHT22;6732;51.044;3.746;2023-01-19T06:33:22;3.60;99.90
13326;DHT22;6732;51.044;3.746;2023-01-19T06:35:49;3.60;99.90
13326;DHT22;6732;51.044;3.746;2023-01-19T06:38:16;3.50;99.90
13326;DHT22;6732;51.044;3.746;2023-01-19T06:40:45;3.50;99.90
13326;DHT22;6732;51.044;3.746;2023-01-19T06:43:11;3.60;99.90
13326;DHT22;6732;51.044;3.746;2023-01-19T06:45:37;3.60;99.90
13326;DHT22;6732;51.044;3.746;2023-01-19T06:48:04;3.60;99.90
13326;DHT22;6732;51.044;3.746;2023-01-19T06:50:30;3.60;99.90
13326;DHT22;6732;51.044;3.746;2023-01-19T06:52:56;3.60;99.90
13326;DHT22;6732;51.044;3.746;2023-01-19T06:55:22;3.60;99.90
13326;DHT22;6732;51.044;3.746;2023-01-19T06:57:55;3.60;99.90
13326;DHT22;6732;51.044;3.746;2023-01-19T07:00:21;3.60;99.90
13326;DHT22;6732;51.044;3.746;2023-01-19T07:02:48;3.60;99.90
13326;DHT22;6732;51.044;3.746;2023-01-19T07:05:14;3.60;99.90
13326;DHT22;6732;51.044;3.746;2023-01-19T07:07:40;3.50;99.90
13326;DHT22;6732;51.044;3.746;2023-01-19T07:10:08;3.50;99.90
13326;DHT22;6732;51.044;3.746;2023-01-19T07:12:37;3.50;99.90
13326;DHT22;6732;51.044;3.746;2023-01-19T07:15:03;3.50;99.90
13326;DHT22;6732;51.044;3.746;2023-01-19T07:17:29;3.50;99.90
13326;DHT22;6732;51.044;3.746;2023-01-19T07:19:55;3.50;99.90
13326;DHT22;6732;51.044;3.746;2023-01-19T07:22:21;3.50;99.90
13326;DHT22;6732;51.044;3.746;2023-01-19T07:24:46;3.50;99.90
13326;DHT22;6732;51.044;3.746;2023-01-19T07:27:12;3.50;99.90
13326;DHT22;6732;51.044;3.746;2023-01-19T07:29:39;3.50;99.90
13326;DHT22;6732;51.044;3.746;2023-01-19T07:32:05;3.50;99.90
13326;DHT22;6732;51.044;3.746;2023-01-19T07:34:31;3.60;99.90
13326;DHT22;6732;51.044;3.746;2023-01-19T07:36:57;3.60;99.90
13326;DHT22;6732;51.044;3.746;2023-01-19T07:39:23;3.60;99.90
13326;DHT22;6732;51.044;3.746;2023-01-19T07:41:49;3.60;99.90
13326;DHT22;6732;51.044;3.746;2023-01-19T07:44:15;3.60;99.90
13326;DHT22;6732;51.044;3.746;2023-01-19T07:46:41;3.60;99.90
13326;DHT22;6732;51.044;3.746;2023-01-19T07:49:08;3.60;99.90
13326;DHT22;6732;51.044;3.746;2023-01-19T07:51:34;3.60;99.90
13326;DHT22;6732;51.044;3.746;2023-01-19T07:54:00;3.60;99.90
13326;DHT22;6732;51.044;3.746;2023-01-19T07:56:26;3.70;99.90
13326;DHT22;6732;51.044;3.746;2023-01-19T07:58:55;3.70;99.90
13326;DHT22;6732;51.044;3.746;2023-01-19T08:01:21;3.70;99.90
13326;DHT22;6732;51.044;3.746;2023-01-19T08:03:47;3.70;99.90
13326;DHT22;6732;51.044;3.746;2023-01-19T08:06:22;3.70;99.90
13326;DHT22;6732;51.044;3.746;2023-01-19T08:08:48;3.70;99.90
13326;DHT22;6732;51.044;3.746;2023-01-19T08:11:15;3.70;99.90
13326;DHT22;6732;51.044;3.746;2023-01-19T08:13:41;3.70;99.90
13326;DHT22;6732;51.044;3.746;2023-01-19T08:16:08;3.70;99.90
13326;DHT22;6732;51.044;3.746;2023-01-19T08:18:34;3.70;99.90
13326;DHT22;6732;51.044;3.746;2023-01-19T08:21:00;3.70;99.90
13326;DHT22;6732;51.044;3.746;2023-01-19T08:23:26;3.70;99.90
13326;DHT22;6732;51.044;3.746;2023-01-19T08:25:52;3.70;99.90
13326;DHT22;6732;51.044;3.746;2023-01-19T08:28:20;3.70;99.90
13326;DHT22;6732;51.044;3.746;2023-01-19T08:30:47;3.80;99.90
13326;DHT22;6732;51.044;3.746;2023-01-19T08:33:22;3.80;99.90
13326;DHT22;6732;51.044;3.746;2023-01-19T08:35:50;3.80;99.90
13326;DHT22;6732;51.044;3.746;2023-01-19T08:38:18;3.80;99.90
13326;DHT22;6732;51.044;3.746;2023-01-19T08:40:44;3.80;99.90
13326;DHT22;6732;51.044;3.746;2023-01-19T08:43:12;3.80;99.90
13326;DHT22;6732;51.044;3.746;2023-01-19T08:45:42;3.80;99.90
13326;DHT22;6732;51.044;3.746;2023-01-19T08:48:15;3.80;99.90
13326;DHT22;6732;51.044;3.746;2023-01-19T08:50:41;3.90;99.90
13326;DHT22;6732;51.044;3.746;2023-01-19T08:53:09;3.90;99.90
13326;DHT22;6732;51.044;3.746;2023-01-19T08:55:36;3.90;99.90
13326;DHT22;6732;51.044;3.746;2023-01-19T08:58:03;3.90;99.90
13326;DHT22;6732;51.044;3.746;2023-01-19T09:00:30;3.90;99.90
13326;DHT22;6732;51.044;3.746;2023-01-19T09:02:58;3.80;99.90
13326;DHT22;6732;51.044;3.746;2023-01-19T09:05:26;3.80;99.90
13326;DHT22;6732;51.044;3.746;2023-01-19T09:07:52;3.80;99.90
13326;DHT22;6732;51.044;3.746;2023-01-19T09:10:18;3.80;99.90
13326;DHT22;6732;51.044;3.746;2023-01-19T09:12:44;3.90;99.90
13326;DHT22;6732;51.044;3.746;2023-01-19T09:15:11;3.90;99.90
13326;DHT22;6732;51.044;3.746;2023-01-19T09:17:41;3.90;99.90
13326;DHT22;6732;51.044;3.746;2023-01-19T09:20:07;3.90;99.90
13326;DHT22;6732;51.044;3.746;2023-01-19T09:22:33;3.90;99.90
13326;DHT22;6732;51.044;3.746;2023-01-19T09:24:59;3.90;99.90
13326;DHT22;6732;51.044;3.746;2023-01-19T09:27:25;3.90;99.90
13326;DHT22;6732;51.044;3.746;2023-01-19T09:29:51;3.90;99.90
13326;DHT22;6732;51.044;3.746;2023-01-19T09:32:19;3.90;99.90
13326;DHT22;6732;51.044;3.746;2023-01-19T09:34:46;3.90;99.90
13326;DHT22;6732;51.044;3.746;2023-01-19T09:37:12;3.90;99.90
13326;DHT22;6732;51.044;3.746;2023-01-19T09:39:38;3.90;99.90
13326;DHT22;6732;51.044;3.746;2023-01-19T09:42:40;3.90;99.90
13326;DHT22;6732;51.044;3.746;2023-01-19T09:45:15;3.90;99.90
13326;DHT22;6732;51.044;3.746;2023-01-19T09:47:44;3.90;99.90
13326;DHT22;6732;51.044;3.746;2023-01-19T09:50:26;3.90;99.90
13326;DHT22;6732;51.044;3.746;2023-01-19T09:53:00;3.90;99.90
13326;DHT22;6732;51.044;3.746;2023-01-19T09:55:27;3.90;99.90
13326;DHT22;6732;51.044;3.746;2023-01-19T09:57:53;3.90;99.90
13326;DHT22;6732;51.044;3.746;2023-01-19T10:00:19;4.00;99.90
13326;DHT22;6732;51.044;3.746;2023-01-19T10:05:30;3.90;99.90
13326;DHT22;6732;51.044;3.746;2023-01-19T10:08:03;4.00;99.90
13326;DHT22;6732;51.044;3.746;2023-01-19T10:10:34;4.00;99.90
13326;DHT22;6732;51.044;3.746;2023-01-19T10:15:53;4.00;99.90
13326;DHT22;6732;51.044;3.746;2023-01-19T10:18:27;4.00;99.90
13326;DHT22;6732;51.044;3.746;2023-01-19T10:21:08;4.00;99.90
13326;DHT22;6732;51.044;3.746;2023-01-19T10:23:56;4.10;99.90
13326;DHT22;6732;51.044;3.746;2023-01-19T10:26:47;4.10;99.90
13326;DHT22;6732;51.044;3.746;2023-01-19T10:29:27;4.00;99.90
13326;DHT22;6732;51.044;3.746;2023-01-19T10:34:42;4.10;99.90
13326;DHT22;6732;51.044;3.746;2023-01-19T10:37:24;4.00;99.90
13326;DHT22;6732;51.044;3.746;2023-01-19T10:42:37;4.00;99.90
13326;DHT22;6732;51.044;3.746;2023-01-19T10:45:18;4.10;99.90
13326;DHT22;6732;51.044;3.746;2023-01-19T10:47:45;4.10;99.90
13326;DHT22;6732;51.044;3.746;2023-01-19T10:52:54;4.10;99.90
13326;DHT22;6732;51.044;3.746;2023-01-19T10:55:33;4.10;99.90
13326;DHT22;6732;51.044;3.746;2023-01-19T10:57:59;4.10;99.90
13326;DHT22;6732;51.044;3.746;2023-01-19T11:02:57;4.10;99.90
13326;DHT22;6732;51.044;3.746;2023-01-19T11:05:26;4.20;99.90
13326;DHT22;6732;51.044;3.746;2023-01-19T11:07:52;4.20;99.90
13326;DHT22;6732;51.044;3.746;2023-01-19T11:10:28;4.20;99.90
13326;DHT22;6732;51.044;3.746;2023-01-19T11:18:28;4.20;99.90
13326;DHT22;6732;51.044;3.746;2023-01-19T11:21:03;4.20;99.90
13326;DHT22;6732;51.044;3.746;2023-01-19T11:23:34;4.20;99.90
13326;DHT22;6732;51.044;3.746;2023-01-19T11:26:29;4.20;99.90
13326;DHT22;6732;51.044;3.746;2023-01-19T11:28:54;4.30;99.90
13326;DHT22;6732;51.044;3.746;2023-01-19T11:34:32;4.30;99.90
13326;DHT22;6732;51.044;3.746;2023-01-19T11:37:04;4.30;99.90
13326;DHT22;6732;51.044;3.746;2023-01-19T11:39:44;4.40;99.90
13326;DHT22;6732;51.044;3.746;2023-01-19T11:42:11;4.40;99.90
13326;DHT22;6732;51.044;3.746;2023-01-19T11:45:03;4.40;99.90
13326;DHT22;6732;51.044;3.746;2023-01-19T11:47:51;4.40;99.90
13326;DHT22;6732;51.044;3.746;2023-01-19T11:50:40;4.40;99.90
13326;DHT22;6732;51.044;3.746;2023-01-19T11:53:16;4.40;99.90
13326;DHT22;6732;51.044;3.746;2023-01-19T11:58:25;4.40;99.90
13326;DHT22;6732;51.044;3.746;2023-01-19T12:06:41;4.40;99.90
13326;DHT22;6732;51.044;3.746;2023-01-19T12:12:10;4.50;99.90
13326;DHT22;6732;51.044;3.746;2023-01-19T12:14:40;4.50;99.90
13326;DHT22;6732;51.044;3.746;2023-01-19T12:17:14;4.50;99.90
13326;DHT22;6732;51.044;3.746;2023-01-19T12:19:47;4.50;99.90
13326;DHT22;6732;51.044;3.746;2023-01-19T12:22:16;4.50;99.90
13326;DHT22;6732;51.044;3.746;2023-01-19T12:24:53;4.60;99.90
13326;DHT22;6732;51.044;3.746;2023-01-19T12:27:43;4.60;99.90
13326;DHT22;6732;51.044;3.746;2023-01-19T12:30:18;4.60;99.90
13326;DHT22;6732;51.044;3.746;2023-01-19T12:32:45;4.60;99.90
13326;DHT22;6732;51.044;3.746;2023-01-19T12:38:34;4.60;99.90
13326;DHT22;6732;51.044;3.746;2023-01-19T12:41:33;4.70;99.90
13326;DHT22;6732;51.044;3.746;2023-01-19T12:46:43;4.70;99.90
13326;DHT22;6732;51.044;3.746;2023-01-19T12:49:25;4.70;99.90
13326;DHT22;6732;51.044;3.746;2023-01-19T12:52:09;4.70;99.90
13326;DHT22;6732;51.044;3.746;2023-01-19T12:54:38;4.70;99.90
13326;DHT22;6732;51.044;3.746;2023-01-19T12:57:15;4.70;99.90
13326;DHT22;6732;51.044;3.746;2023-01-19T12:59:42;4.70;99.90
13326;DHT22;6732;51.044;3.746;2023-01-19T13:18:53;4.70;99.90
13326;DHT22;6732;51.044;3.746;2023-01-19T13:21:31;4.70;99.90
13326;DHT22;6732;51.044;3.746;2023-01-19T13:23:59;4.70;99.90
13326;DHT22;6732;51.044;3.746;2023-01-19T13:26:29;4.70;99.90
13326;DHT22;6732;51.044;3.746;2023-01-19T13:29:06;4.70;99.90
13326;DHT22;6732;51.044;3.746;2023-01-19T13:31:34;4.70;99.90
13326;DHT22;6732;51.044;3.746;2023-01-19T13:34:01;4.70;99.90
13326;DHT22;6732;51.044;3.746;2023-01-19T13:36:34;4.70;99.90
13326;DHT22;6732;51.044;3.746;2023-01-19T13:39:15;4.70;99.90
13326;DHT22;6732;51.044;3.746;2023-01-19T13:41:42;4.80;99.90
13326;DHT22;6732;51.044;3.746;2023-01-19T13:44:15;4.80;99.90
13326;DHT22;6732;51.044;3.746;2023-01-19T13:46:43;4.80;99.90
13326;DHT22;6732;51.044;3.746;2023-01-19T13:49:17;4.80;99.90
13326;DHT22;6732;51.044;3.746;2023-01-19T13:52:02;4.80;99.90
13326;DHT22;6732;51.044;3.746;2023-01-19T13:54:28;4.80;99.90
13326;DHT22;6732;51.044;3.746;2023-01-19T13:56:54;4.80;99.90
13326;DHT22;6732;51.044;3.746;2023-01-19T13:59:19;4.80;99.90
13326;DHT22;6732;51.044;3.746;2023-01-19T14:01:46;4.80;99.90
13326;DHT22;6732;51.044;3.746;2023-01-19T14:04:33;4.80;99.90
13326;DHT22;6732;51.044;3.746;2023-01-19T14:07:05;4.80;99.90
13326;DHT22;6732;51.044;3.746;2023-01-19T14:09:31;4.80;99.90
13326;DHT22;6732;51.044;3.746;2023-01-19T14:12:23;4.80;99.90
13326;DHT22;6732;51.044;3.746;2023-01-19T14:14:50;4.80;99.90
13326;DHT22;6732;51.044;3.746;2023-01-19T14:17:29;4.90;99.90
13326;DHT22;6732;51.044;3.746;2023-01-19T14:19:58;4.80;99.90
13326;DHT22;6732;51.044;3.746;2023-01-19T14:25:28;4.90;99.90
13326;DHT22;6732;51.044;3.746;2023-01-19T14:31:21;4.80;99.90
13326;DHT22;6732;51.044;3.746;2023-01-19T14:33:50;4.90;99.90
13326;DHT22;6732;51.044;3.746;2023-01-19T14:38:50;4.80;99.90
13326;DHT22;6732;51.044;3.746;2023-01-19T14:41:34;4.90;99.90
13326;DHT22;6732;51.044;3.746;2023-01-19T14:44:07;4.80;99.90
13326;DHT22;6732;51.044;3.746;2023-01-19T14:46:34;4.80;99.90
13326;DHT22;6732;51.044;3.746;2023-01-19T14:49:03;4.80;99.90
13326;DHT22;6732;51.044;3.746;2023-01-19T14:51:30;4.80;99.90
13326;DHT22;6732;51.044;3.746;2023-01-19T14:54:16;4.80;99.90
13326;DHT22;6732;51.044;3.746;2023-01-19T14:56:42;4.80;99.90
13326;DHT22;6732;51.044;3.746;2023-01-19T14:59:09;4.90;99.90
13326;DHT22;6732;51.044;3.746;2023-01-19T15:01:38;4.90;99.90
13326;DHT22;6732;51.044;3.746;2023-01-19T15:04:04;4.90;99.90
13326;DHT22;6732;51.044;3.746;2023-01-19T15:06:30;4.90;99.90
13326;DHT22;6732;51.044;3.746;2023-01-19T15:08:57;4.90;99.90
13326;DHT22;6732;51.044;3.746;2023-01-19T15:11:32;4.90;99.90
13326;DHT22;6732;51.044;3.746;2023-01-19T15:13:59;4.90;99.90
13326;DHT22;6732;51.044;3.746;2023-01-19T15:16:25;4.90;99.90
13326;DHT22;6732;51.044;3.746;2023-01-19T15:18:52;4.90;99.90
13326;DHT22;6732;51.044;3.746;2023-01-19T15:21:22;4.90;99.90
13326;DHT22;6732;51.044;3.746;2023-01-19T15:23:48;4.90;99.90
13326;DHT22;6732;51.044;3.746;2023-01-19T15:26:16;4.90;99.90
13326;DHT22;6732;51.044;3.746;2023-01-19T15:28:43;4.90;99.90
13326;DHT22;6732;51.044;3.746;2023-01-19T15:31:16;4.90;99.90
13326;DHT22;6732;51.044;3.746;2023-01-19T15:33:42;4.90;99.90
13326;DHT22;6732;51.044;3.746;2023-01-19T15:36:16;4.90;99.90
13326;DHT22;6732;51.044;3.746;2023-01-19T15:38:43;4.90;99.90
13326;DHT22;6732;51.044;3.746;2023-01-19T15:41:13;4.90;99.90
13326;DHT22;6732;51.044;3.746;2023-01-19T15:43:39;4.90;99.90
13326;DHT22;6732;51.044;3.746;2023-01-19T15:46:06;4.90;99.90
13326;DHT22;6732;51.044;3.746;2023-01-19T15:48:32;4.90;99.90
13326;DHT22;6732;51.044;3.746;2023-01-19T15:50:58;4.90;99.90
13326;DHT22;6732;51.044;3.746;2023-01-19T15:53:24;4.90;99.90
13326;DHT22;6732;51.044;3.746;2023-01-19T15:55:53;4.90;99.90
13326;DHT22;6732;51.044;3.746;2023-01-19T15:58:22;4.90;99.90
13326;DHT22;6732;51.044;3.746;2023-01-19T16:00:57;4.80;99.90
13326;DHT22;6732;51.044;3.746;2023-01-19T16:03:26;4.80;99.90
13326;DHT22;6732;51.044;3.746;2023-01-19T16:05:52;4.80;99.90
13326;DHT22;6732;51.044;3.746;2023-01-19T16:08:18;4.80;99.90
13326;DHT22;6732;51.044;3.746;2023-01-19T16:10:43;4.80;99.90
13326;DHT22;6732;51.044;3.746;2023-01-19T16:13:10;4.80;99.90
13326;DHT22;6732;51.044;3.746;2023-01-19T16:15:37;4.80;99.90
13326;DHT22;6732;51.044;3.746;2023-01-19T16:18:04;4.80;99.90
13326;DHT22;6732;51.044;3.746;2023-01-19T16:20:31;4.80;99.90
13326;DHT22;6732;51.044;3.746;2023-01-19T16:22:57;4.80;99.90
13326;DHT22;6732;51.044;3.746;2023-01-19T16:25:23;4.70;99.90
13326;DHT22;6732;51.044;3.746;2023-01-19T16:27:49;4.70;99.90
13326;DHT22;6732;51.044;3.746;2023-01-19T16:30:16;4.70;99.90
13326;DHT22;6732;51.044;3.746;2023-01-19T16:32:44;4.70;99.90
13326;DHT22;6732;51.044;3.746;2023-01-19T16:35:10;4.70;99.90
13326;DHT22;6732;51.044;3.746;2023-01-19T16:37:37;4.70;99.90
13326;DHT22;6732;51.044;3.746;2023-01-19T16:40:04;4.70;99.90
13326;DHT22;6732;51.044;3.746;2023-01-19T16:42:31;4.70;99.90
13326;DHT22;6732;51.044;3.746;2023-01-19T16:44:57;4.70;99.90
13326;DHT22;6732;51.044;3.746;2023-01-19T16:47:23;4.60;99.90
13326;DHT22;6732;51.044;3.746;2023-01-19T16:49:48;4.60;99.90
13326;DHT22;6732;51.044;3.746;2023-01-19T16:52:15;4.60;99.90
13326;DHT22;6732;51.044;3.746;2023-01-19T16:54:41;4.60;99.90
13326;DHT22;6732;51.044;3.746;2023-01-19T16:57:08;4.60;99.90
13326;DHT22;6732;51.044;3.746;2023-01-19T16:59:35;4.60;99.90
13326;DHT22;6732;51.044;3.746;2023-01-19T17:02:01;4.60;99.90
13326;DHT22;6732;51.044;3.746;2023-01-19T17:04:27;4.60;99.90
13326;DHT22;6732;51.044;3.746;2023-01-19T17:06:53;4.60;99.90
13326;DHT22;6732;51.044;3.746;2023-01-19T17:09:19;4.60;99.90
13326;DHT22;6732;51.044;3.746;2023-01-19T17:11:45;4.50;99.90
13326;DHT22;6732;51.044;3.746;2023-01-19T17:14:14;4.50;99.90
13326;DHT22;6732;51.044;3.746;2023-01-19T17:16:41;4.50;99.90
13326;DHT22;6732;51.044;3.746;2023-01-19T17:19:09;4.50;99.90
13326;DHT22;6732;51.044;3.746;2023-01-19T17:21:37;4.50;99.90
13326;DHT22;6732;51.044;3.746;2023-01-19T17:24:03;4.60;99.90
13326;DHT22;6732;51.044;3.746;2023-01-19T17:26:29;4.50;99.90
13326;DHT22;6732;51.044;3.746;2023-01-19T17:28:59;4.60;99.90
13326;DHT22;6732;51.044;3.746;2023-01-19T17:31:25;4.50;99.90
13326;DHT22;6732;51.044;3.746;2023-01-19T17:33:51;4.50;99.90
13326;DHT22;6732;51.044;3.746;2023-01-19T17:36:20;4.50;99.90
13326;DHT22;6732;51.044;3.746;2023-01-19T17:38:48;4.40;99.90
13326;DHT22;6732;51.044;3.746;2023-01-19T17:43:44;4.40;99.90